Three Creek, Idaho
Current Conditions -  °F | °C
As of 7:53 AM on Tuesday 21 Oct 2014 (Local Time) from KTWF Reporting Station
Light Rain Light Rain  
Wind Chill: 39°   Ceiling: 3500
Heat Index: 43°   Visibility: 9mi
Dew Point: 39°   Wind: 6mph
Humidity: 86%   Direction: 190°S
Pressure: 30"   Gusts: NA
Location:  42.227°N, 114.616°W
Report Text: KTWF 211353Z 19005KT 9SM -RA OVC035 06/04 A3000 RMK AO2 PK WND 24028/1257 SLP129 P0002 T00610039
Loading
Personal Weather Stations






























Interactive Weather Map
Tropical Storm Tracking
New forecast layout! Learn more

10-Day Weather Forecast

Advertisements
Track Severe Weather on mobile